createdAt,value
2019-06-08T00:00:39.408Z,14.73
2019-06-08T00:03:09.450Z,14.47
2019-06-08T00:05:40.936Z,14.93
2019-06-08T00:08:13.014Z,14.80
2019-06-08T00:10:45.892Z,14.78
2019-06-08T00:13:17.041Z,14.38
2019-06-08T00:15:54.165Z,13.88
2019-06-08T00:18:26.034Z,14.73
2019-06-08T00:23:25.600Z,14.78
2019-06-08T00:26:11.444Z,14.78
2019-06-08T00:28:41.458Z,14.10
2019-06-08T00:31:29.062Z,14.55
2019-06-08T00:34:04.607Z,13.72
2019-06-08T00:36:36.266Z,14.23
2019-06-08T00:39:09.494Z,14.60
2019-06-08T00:41:40.053Z,14.73
2019-06-08T00:44:17.518Z,14.43
2019-06-08T00:46:47.666Z,14.38
2019-06-08T00:49:24.704Z,13.90
2019-06-08T00:51:55.171Z,14.93
2019-06-08T00:54:29.753Z,13.95
2019-06-08T00:57:19.689Z,14.10
2019-06-08T00:59:52.634Z,14.28
2019-06-08T01:02:28.888Z,14.10
2019-06-08T01:05:03.074Z,13.83
2019-06-08T01:07:42.034Z,14.78
2019-06-08T01:10:13.003Z,14.58
2019-06-08T01:12:43.333Z,13.33
2019-06-08T01:15:23.749Z,13.43
2019-06-08T01:18:02.224Z,14.13
2019-06-08T01:22:58.158Z,13.60
2019-06-08T01:25:34.984Z,14.30
2019-06-08T01:28:10.995Z,13.93
2019-06-08T01:30:40.894Z,14.87
2019-06-08T01:33:10.881Z,15.40
2019-06-08T01:35:45.995Z,14.53
2019-06-08T01:38:16.262Z,15.55
2019-06-08T01:40:53.597Z,14.80
2019-06-08T01:43:29.596Z,15.20
2019-06-08T01:45:59.728Z,14.78
2019-06-08T01:48:30.269Z,14.73
2019-06-08T01:51:00.667Z,14.60
2019-06-08T01:53:34.519Z,15.43
2019-06-08T01:56:09.787Z,15.68
2019-06-08T01:58:50.019Z,15.55
2019-06-08T02:01:21.582Z,17.02
2019-06-08T02:03:51.846Z,16.32
2019-06-08T02:06:24.198Z,17.50
2019-06-08T02:08:54.350Z,19.40
2019-06-08T02:11:26.702Z,17.55
2019-06-08T02:13:56.901Z,15.60
2019-06-08T02:16:27.379Z,16.77
2019-06-08T02:18:57.713Z,18.30
2019-06-08T02:21:28.836Z,18.23
2019-06-08T02:24:05.791Z,20.30
2019-06-08T02:26:36.409Z,17.92
2019-06-08T02:29:10.855Z,17.73
2019-06-08T02:31:41.975Z,18.10
2019-06-08T02:34:12.138Z,17.45
2019-06-08T02:36:42.044Z,16.37
2019-06-08T02:39:17.415Z,18.35
2019-06-08T02:41:47.326Z,17.17
2019-06-08T02:44:20.169Z,15.83
2019-06-08T02:46:53.147Z,18.73
2019-06-08T02:49:26.417Z,16.97
2019-06-08T02:52:00.347Z,16.55
2019-06-08T02:54:35.404Z,16.62
2019-06-08T02:57:06.540Z,17.45
2019-06-08T02:59:42.765Z,16.62
2019-06-08T03:02:14.390Z,15.58
2019-06-08T03:04:44.374Z,16.93
2019-06-08T03:07:20.457Z,14.85
2019-06-08T03:09:58.121Z,15.85
2019-06-08T03:12:28.330Z,16.82
2019-06-08T03:15:00.406Z,15.93
2019-06-08T03:17:33.415Z,15.80
2019-06-08T03:20:05.473Z,16.15
2019-06-08T03:22:37.150Z,16.35
2019-06-08T03:25:07.661Z,16.12
2019-06-08T03:27:44.014Z,15.35
2019-06-08T03:30:18.947Z,15.93
2019-06-08T03:32:55.973Z,16.05
2019-06-08T03:35:28.367Z,16.02
2019-06-08T03:38:00.352Z,16.20
2019-06-08T03:40:45.169Z,16.05
2019-06-08T03:43:14.748Z,17.25
2019-06-08T03:45:45.376Z,15.18
2019-06-08T03:48:15.676Z,15.05
2019-06-08T03:53:24.692Z,15.88
2019-06-08T03:58:34.108Z,17.42
2019-06-08T04:01:03.536Z,15.75
2019-06-08T04:03:33.870Z,16.65
2019-06-08T04:06:04.471Z,16.82
2019-06-08T04:08:40.852Z,15.58
2019-06-08T04:11:11.451Z,15.23
2019-06-08T04:13:42.076Z,15.72
2019-06-08T04:16:13.266Z,16.00
2019-06-08T04:18:53.690Z,15.48
2019-06-08T04:21:28.464Z,15.28
2019-06-08T04:24:04.883Z,14.78
2019-06-08T04:26:38.494Z,16.87
2019-06-08T04:29:09.403Z,15.18
2019-06-08T04:31:43.656Z,14.85
2019-06-08T04:34:23.312Z,15.28
2019-06-08T04:36:54.846Z,15.63
2019-06-08T04:39:26.456Z,15.30
2019-06-08T04:41:58.039Z,14.80
2019-06-08T04:44:29.589Z,15.60
2019-06-08T04:47:05.985Z,15.28
2019-06-08T04:49:35.908Z,14.95
2019-06-08T04:52:10.599Z,15.40
2019-06-08T04:54:40.838Z,14.95
2019-06-08T04:57:14.023Z,15.32
2019-06-08T04:59:55.032Z,15.38
2019-06-08T05:02:27.403Z,14.75
2019-06-08T05:05:01.807Z,15.40
2019-06-08T05:07:36.171Z,16.30
2019-06-08T05:10:12.034Z,15.18
2019-06-08T05:15:23.058Z,15.40
2019-06-08T05:17:58.628Z,15.72
2019-06-08T05:20:39.079Z,14.25
2019-06-08T05:23:03.119Z,15.08
2019-06-08T05:25:39.434Z,15.28
2019-06-08T05:28:10.740Z,15.20
2019-06-08T05:30:41.261Z,15.03
2019-06-08T05:33:28.058Z,16.42
2019-06-08T05:36:02.758Z,15.75
2019-06-08T05:38:33.005Z,14.75
2019-06-08T05:41:03.010Z,15.18
2019-06-08T05:43:34.481Z,14.45
2019-06-08T05:46:09.021Z,15.88
2019-06-08T05:48:41.899Z,14.50
2019-06-08T05:51:17.556Z,14.73
2019-06-08T05:53:55.541Z,15.30
2019-06-08T05:56:25.525Z,15.28
2019-06-08T05:58:55.895Z,15.90
2019-06-08T06:01:25.860Z,15.45
2019-06-08T06:03:56.948Z,15.50
2019-06-08T06:06:33.058Z,16.50
2019-06-08T06:09:10.594Z,15.85
2019-06-08T06:11:46.867Z,16.62
2019-06-08T06:14:19.951Z,17.62
2019-06-08T06:16:51.804Z,18.00
2019-06-08T06:19:24.481Z,18.30
2019-06-08T06:22:00.593Z,18.48
2019-06-08T06:24:32.593Z,20.20
2019-06-08T06:33:17.058Z,19.30
2019-06-08T06:38:27.204Z,19.82
2019-06-08T06:41:01.635Z,19.35
2019-06-08T06:43:32.116Z,20.02
2019-06-08T06:46:05.645Z,19.32
2019-06-08T06:48:36.257Z,20.48
2019-06-08T06:51:06.222Z,19.60
2019-06-08T06:53:37.649Z,19.98
2019-06-08T06:56:07.901Z,19.48
2019-06-08T06:58:37.906Z,19.82
2019-06-08T07:01:09.583Z,19.65
2019-06-08T07:06:08.875Z,19.20
2019-06-08T07:08:41.926Z,19.20
2019-06-08T07:11:12.375Z,20.30
2019-06-08T07:16:18.461Z,19.42
2019-06-08T07:18:48.296Z,19.32
2019-06-08T07:21:24.553Z,20.27
2019-06-08T07:24:04.403Z,19.23
2019-06-08T07:26:32.663Z,18.87
2019-06-08T07:29:04.340Z,19.50
2019-06-08T07:31:35.664Z,19.30
2019-06-08T07:34:07.154Z,19.55
2019-06-08T07:36:39.718Z,20.27
2019-06-08T07:39:09.866Z,20.85
2019-06-08T07:44:10.773Z,20.27
2019-06-08T07:46:46.986Z,20.02
2019-06-08T07:49:24.777Z,21.07
2019-06-08T07:52:07.532Z,20.68
2019-06-08T07:54:30.291Z,20.77
2019-06-08T07:57:01.708Z,22.05
2019-06-08T08:02:10.381Z,21.05
2019-06-08T08:05:00.006Z,20.85
2019-06-08T08:07:44.687Z,21.42
2019-06-08T08:10:18.265Z,20.95
2019-06-08T08:12:49.221Z,21.12
2019-06-08T08:15:20.695Z,20.52
2019-06-08T08:17:52.295Z,20.85
2019-06-08T08:22:58.890Z,20.80
2019-06-08T08:25:28.081Z,20.60
2019-06-08T08:27:59.343Z,20.50
2019-06-08T08:30:29.418Z,20.68
2019-06-08T08:33:02.702Z,20.52
2019-06-08T08:38:04.041Z,21.17
2019-06-08T08:43:02.996Z,20.80
2019-06-08T08:45:32.878Z,20.50
2019-06-08T08:48:20.452Z,20.12
2019-06-08T08:50:34.796Z,20.75
2019-06-08T08:53:04.764Z,21.45
2019-06-08T08:55:35.034Z,19.95
2019-06-08T08:58:05.256Z,21.07
2019-06-08T09:00:35.118Z,21.75
2019-06-08T09:03:24.331Z,21.27
2019-06-08T09:05:38.305Z,20.52
2019-06-08T09:08:08.797Z,21.62
2019-06-08T09:10:39.115Z,21.82
2019-06-08T09:13:12.136Z,22.32
2019-06-08T09:18:10.133Z,22.07
2019-06-08T09:20:41.454Z,21.45
2019-06-08T09:23:16.293Z,20.97
2019-06-08T09:25:43.247Z,22.85
2019-06-08T09:28:13.422Z,22.50
2019-06-08T09:30:43.384Z,22.65
2019-06-08T09:33:13.388Z,22.10
2019-06-08T09:35:43.678Z,22.27
2019-06-08T09:38:13.737Z,22.85
2019-06-08T09:40:43.764Z,21.42
2019-06-08T09:43:14.170Z,21.97
2019-06-08T09:45:44.293Z,22.77
2019-06-08T09:48:14.421Z,22.62
2019-06-08T09:50:44.484Z,21.87
2019-06-08T09:53:24.300Z,21.77
2019-06-08T09:55:48.150Z,21.75
2019-06-08T09:58:18.837Z,22.50
2019-06-08T10:00:49.026Z,21.33
2019-06-08T10:03:19.285Z,21.02
2019-06-08T10:05:50.204Z,21.02
2019-06-08T10:08:20.907Z,21.37
2019-06-08T10:10:51.692Z,22.50
2019-06-08T10:13:21.997Z,21.07
2019-06-08T10:15:52.089Z,20.97
2019-06-08T10:18:22.564Z,20.72
2019-06-08T10:20:52.952Z,21.73
2019-06-08T10:23:30.735Z,22.52
2019-06-08T10:28:25.023Z,21.70
2019-06-08T10:30:55.945Z,22.93
2019-06-08T10:33:28.181Z,22.35
2019-06-08T10:36:01.750Z,21.40
2019-06-08T10:38:30.498Z,22.02
2019-06-08T10:41:14.822Z,20.60
2019-06-08T10:43:38.683Z,21.48
2019-06-08T10:46:16.099Z,22.40
2019-06-08T10:48:40.971Z,21.95
2019-06-08T10:51:12.961Z,22.17
2019-06-08T10:53:49.487Z,22.40
2019-06-08T10:56:18.909Z,22.22
2019-06-08T10:58:49.801Z,21.17
2019-06-08T11:01:20.390Z,23.85
2019-06-08T11:03:50.468Z,22.10
2019-06-08T11:06:21.573Z,22.27
2019-06-08T11:08:51.641Z,23.45
2019-06-08T11:11:21.559Z,22.70
2019-06-08T11:13:51.580Z,22.80
2019-06-08T11:16:21.842Z,23.02
2019-06-08T11:18:51.899Z,23.83
2019-06-08T11:21:22.028Z,23.30
2019-06-08T11:24:05.749Z,24.02
2019-06-08T11:26:24.588Z,23.65
2019-06-08T11:28:54.900Z,23.20
2019-06-08T11:31:24.825Z,24.30
2019-06-08T11:33:55.225Z,24.02
2019-06-08T11:36:28.045Z,24.05
2019-06-08T11:41:28.225Z,25.20
2019-06-08T11:44:01.038Z,25.25
2019-06-08T11:46:30.097Z,25.48
2019-06-08T11:49:01.139Z,26.48
2019-06-08T11:51:32.466Z,24.55
2019-06-08T11:54:02.993Z,25.40
2019-06-08T11:56:33.092Z,24.92
2019-06-08T11:59:03.327Z,24.63
2019-06-08T12:01:33.311Z,24.82
2019-06-08T12:04:03.643Z,24.47
2019-06-08T12:06:37.156Z,24.77
2019-06-08T12:09:09.515Z,26.52
2019-06-08T12:11:39.572Z,25.08
2019-06-08T12:14:11.091Z,23.22
2019-06-08T12:19:15.043Z,22.50
2019-06-08T12:21:42.186Z,21.82
2019-06-08T12:24:12.407Z,21.73
2019-06-08T12:26:42.435Z,20.25
2019-06-08T12:29:13.475Z,20.37
2019-06-08T12:31:44.277Z,19.70
2019-06-08T12:34:15.546Z,19.98
2019-06-08T12:36:48.060Z,19.35
2019-06-08T12:39:19.771Z,18.55
2019-06-08T12:41:50.089Z,17.48
2019-06-08T12:44:22.176Z,17.65
2019-06-08T12:49:22.019Z,17.62
2019-06-08T12:51:52.355Z,16.82
2019-06-08T12:54:22.357Z,15.40
2019-06-08T12:56:52.270Z,16.35
2019-06-08T12:59:23.202Z,15.38
2019-06-08T13:01:53.436Z,15.43
2019-06-08T13:04:24.006Z,15.60
2019-06-08T13:06:54.987Z,15.72
2019-06-08T13:09:24.955Z,15.10
2019-06-08T13:11:57.040Z,14.38
2019-06-08T13:14:28.430Z,13.93
2019-06-08T13:17:01.179Z,13.18
2019-06-08T13:22:00.606Z,13.48
2019-06-08T13:24:30.577Z,12.78
2019-06-08T13:27:00.585Z,13.03
2019-06-08T13:29:30.553Z,11.88
2019-06-08T13:32:01.581Z,12.10
2019-06-08T13:34:32.763Z,11.57
2019-06-08T13:37:02.727Z,10.80
2019-06-08T13:39:32.791Z,10.65
2019-06-08T13:42:02.887Z,10.00
2019-06-08T13:44:32.938Z,9.23
2019-06-08T13:47:02.825Z,8.98
2019-06-08T13:49:32.899Z,8.85
2019-06-08T13:52:02.723Z,8.60
2019-06-08T13:54:32.781Z,8.35
2019-06-08T13:57:02.636Z,8.53
2019-06-08T13:59:32.973Z,7.95
2019-06-08T14:02:03.025Z,7.53
2019-06-08T14:04:33.709Z,10.15
2019-06-08T14:07:04.786Z,6.85
2019-06-08T14:09:34.963Z,6.65
2019-06-08T14:12:04.987Z,6.28
2019-06-08T14:14:35.043Z,7.10
2019-06-08T14:17:04.996Z,5.65
2019-06-08T14:19:34.999Z,7.22
2019-06-08T14:22:06.019Z,6.28
2019-06-08T14:24:37.746Z,5.20
2019-06-08T14:27:08.309Z,5.10
2019-06-08T14:29:38.941Z,5.00
2019-06-08T14:32:09.489Z,5.15
2019-06-08T14:34:39.523Z,5.30
2019-06-08T14:37:09.610Z,4.95
2019-06-08T14:39:40.003Z,4.75
2019-06-08T14:42:10.093Z,4.45
2019-06-08T14:44:40.065Z,4.55
2019-06-08T14:47:16.059Z,4.28
2019-06-08T14:49:48.550Z,4.80
2019-06-08T14:52:19.324Z,4.40
2019-06-08T14:57:21.271Z,5.17
2019-06-08T14:59:51.418Z,3.60
2019-06-08T15:02:23.494Z,3.42
2019-06-08T15:04:53.753Z,4.65
2019-06-08T15:07:26.367Z,3.27
2019-06-08T15:09:59.094Z,3.30
2019-06-08T15:12:31.421Z,5.03
2019-06-08T15:17:32.353Z,4.12
2019-06-08T15:20:03.315Z,3.70
2019-06-08T15:22:33.336Z,3.90
2019-06-08T15:25:03.483Z,5.65
2019-06-08T15:27:33.556Z,3.87
2019-06-08T15:30:03.715Z,3.72
2019-06-08T15:32:35.739Z,3.30
2019-06-08T15:35:08.034Z,4.97
2019-06-08T15:37:40.928Z,3.72
2019-06-08T15:40:11.374Z,3.22
2019-06-08T15:42:41.609Z,3.90
2019-06-08T15:45:11.826Z,3.90
2019-06-08T15:47:42.101Z,4.28
2019-06-08T15:50:12.879Z,3.98
2019-06-08T15:52:43.741Z,2.40
2019-06-08T15:55:14.124Z,2.73
2019-06-08T15:57:44.132Z,3.02
2019-06-08T16:00:14.782Z,3.55
2019-06-08T16:02:45.150Z,2.37
2019-06-08T16:05:15.881Z,3.85
2019-06-08T16:07:47.222Z,4.00
2019-06-08T16:10:17.850Z,3.70
2019-06-08T16:12:51.684Z,2.70
2019-06-08T16:15:22.608Z,2.52
2019-06-08T16:17:52.782Z,2.20
2019-06-08T16:20:23.360Z,2.40
2019-06-08T16:22:53.825Z,4.17
2019-06-08T16:25:25.575Z,2.20
2019-06-08T16:30:27.144Z,2.70
2019-06-08T16:33:06.306Z,3.30
2019-06-08T16:35:37.475Z,3.72
2019-06-08T16:38:07.931Z,4.50
2019-06-08T16:40:44.569Z,4.35
2019-06-08T16:43:17.621Z,4.12
2019-06-08T16:45:56.058Z,5.12
2019-06-08T16:48:26.541Z,3.10
2019-06-08T16:53:34.112Z,4.80
2019-06-08T16:56:06.552Z,4.83
2019-06-08T16:58:38.251Z,6.12
2019-06-08T17:03:43.359Z,3.40
2019-06-08T17:06:13.844Z,5.25
2019-06-08T17:08:45.759Z,5.33
2019-06-08T17:13:47.641Z,7.90
2019-06-08T17:16:18.137Z,4.78
2019-06-08T17:18:48.724Z,11.28
2019-06-08T17:21:19.317Z,13.68
2019-06-08T17:23:50.224Z,9.83
2019-06-08T17:26:22.237Z,12.33
2019-06-08T17:28:54.232Z,9.58
2019-06-08T17:31:27.759Z,12.20
2019-06-08T17:33:58.090Z,10.55
2019-06-08T17:36:28.906Z,11.15
2019-06-08T17:38:59.839Z,13.38
2019-06-08T17:41:31.912Z,12.60
2019-06-08T17:44:02.458Z,12.10
2019-06-08T17:46:34.727Z,11.80
2019-06-08T17:49:08.340Z,9.35
2019-06-08T17:51:41.894Z,11.08
2019-06-08T17:54:15.609Z,9.13
2019-06-08T17:56:45.845Z,13.28
2019-06-08T17:59:16.079Z,10.70
2019-06-08T18:01:47.689Z,8.23
2019-06-08T18:04:18.022Z,7.05
2019-06-08T18:06:50.366Z,7.67
2019-06-08T18:09:21.479Z,7.15
2019-06-08T18:11:51.891Z,6.33
2019-06-08T18:14:22.326Z,7.42
2019-06-08T18:16:52.730Z,5.67
2019-06-08T18:19:28.429Z,5.83
2019-06-08T18:22:04.043Z,5.70
2019-06-08T18:24:31.222Z,6.35
2019-06-08T18:27:01.400Z,6.85
2019-06-08T18:29:31.892Z,5.20
2019-06-08T18:32:03.086Z,9.00
2019-06-08T18:34:34.801Z,5.53
2019-06-08T18:37:08.544Z,5.62
2019-06-08T18:39:41.737Z,4.92
2019-06-08T18:42:12.748Z,5.40
2019-06-08T18:44:48.586Z,4.25
2019-06-08T18:47:21.419Z,5.42
2019-06-08T18:49:59.890Z,4.62
2019-06-08T18:52:31.869Z,5.60
2019-06-08T18:58:27.783Z,4.03
2019-06-08T19:13:21.739Z,4.58
2019-06-08T19:18:31.122Z,4.58
2019-06-08T19:21:01.038Z,3.95
2019-06-08T19:23:31.019Z,4.17
2019-06-08T19:26:02.573Z,4.12
2019-06-08T19:28:36.254Z,4.00
2019-06-08T19:31:04.417Z,4.53
2019-06-08T19:33:55.088Z,4.70
2019-06-08T19:36:44.491Z,3.17
2019-06-08T19:39:17.654Z,2.50
2019-06-08T19:41:50.249Z,3.92
2019-06-08T19:46:53.134Z,5.03
2019-06-08T19:49:22.519Z,4.90
2019-06-08T19:51:54.051Z,2.90
2019-06-08T19:54:24.310Z,2.80
2019-06-08T19:56:54.638Z,3.77
2019-06-08T19:59:27.425Z,3.30
2019-06-08T20:04:28.222Z,6.15
2019-06-08T20:07:00.620Z,5.90
2019-06-08T20:09:34.661Z,5.90
2019-06-08T20:12:08.138Z,4.90
2019-06-08T20:14:39.485Z,4.20
2019-06-08T20:17:19.404Z,6.58
2019-06-08T20:19:53.330Z,5.62
2019-06-08T20:22:34.204Z,3.77
2019-06-08T20:25:10.290Z,4.75
2019-06-08T20:27:38.657Z,6.62
2019-06-08T20:30:12.181Z,5.10
2019-06-08T20:32:44.652Z,5.33
2019-06-08T20:35:17.311Z,6.50
2019-06-08T20:40:18.038Z,5.87
2019-06-08T20:42:52.630Z,7.83
2019-06-08T20:45:19.878Z,6.67
2019-06-08T20:47:51.970Z,6.78
2019-06-08T20:50:23.655Z,14.23
2019-06-08T20:52:57.631Z,18.70
2019-06-08T20:55:28.470Z,35.52
2019-06-08T20:57:58.779Z,23.25
2019-06-08T21:00:28.700Z,27.37
2019-06-08T21:03:02.773Z,25.10
2019-06-08T21:05:30.508Z,28.05
2019-06-08T21:08:00.553Z,31.00
2019-06-08T21:10:37.747Z,38.28
2019-06-08T21:13:08.071Z,38.05
2019-06-08T21:15:38.432Z,35.17
2019-06-08T21:18:08.887Z,31.48
2019-06-08T21:23:09.601Z,30.50
2019-06-08T21:25:40.353Z,28.07
2019-06-08T21:28:27.903Z,27.42
2019-06-08T21:31:01.872Z,25.82
2019-06-08T21:36:04.654Z,23.45
2019-06-08T21:38:31.612Z,28.60
2019-06-08T21:41:02.954Z,24.67
2019-06-08T21:43:33.171Z,23.55
2019-06-08T21:46:03.116Z,26.95
2019-06-08T21:48:33.105Z,22.27
2019-06-08T21:51:04.346Z,22.55
2019-06-08T21:53:34.260Z,26.25
2019-06-08T21:56:04.362Z,21.30
2019-06-08T21:58:37.807Z,21.68
2019-06-08T22:17:30.013Z,20.27
2019-06-08T22:43:33.792Z,15.55
2019-06-08T23:06:59.657Z,17.55
2019-06-08T23:15:47.833Z,11.97
2019-06-08T23:18:26.475Z,13.62
2019-06-08T23:21:06.515Z,13.32
2019-06-08T23:24:09.574Z,9.08
2019-06-08T23:26:55.691Z,9.65
2019-06-08T23:42:58.550Z,12.20
2019-06-08T23:46:18.210Z,11.90
2019-06-08T23:49:05.752Z,13.08
2019-06-08T23:52:11.623Z,14.03
2019-06-08T23:58:24.999Z,11.20
